Time;durP1;ratioP1;P1;durP2;ratioP2;P2;SDS_P1;SDS_P2;PMS_P1;PMS_P2;Temp;Humidity;BMP_temperature;BMP_pressure;BME280_temperature;BME280_humidity;BME280_pressure;Samples;Min_cycle;Max_cycle;Signal;HPM_P1;HPM_P2
2022/08/28 00:01:03;;;;;;;3.47;2.08;;;25.50;47.10;24.80;101464.00;;;;5091267;28;20490;-72
2022/08/28 00:03:49;;;;;;;3.53;1.65;;;25.50;47.10;24.80;101472.00;;;;5085429;28;20051;-72
2022/08/28 00:06:35;;;;;;;2.65;1.70;;;25.50;47.20;24.80;101459.00;;;;5092477;28;20039;-72
2022/08/28 00:09:21;;;;;;;3.63;1.90;;;25.50;47.20;24.70;101467.00;;;;5076742;28;20569;-72
2022/08/28 00:12:07;;;;;;;2.85;1.60;;;25.50;47.10;24.70;101464.00;;;;5081528;28;20063;-72
2022/08/28 00:14:53;;;;;;;3.85;1.88;;;25.50;47.20;24.70;101463.00;;;;5081134;28;20039;-72
2022/08/28 00:17:40;;;;;;;5.25;2.00;;;25.50;47.20;24.70;101468.00;;;;5088267;28;20074;-72
2022/08/28 00:20:26;;;;;;;2.85;1.63;;;25.50;47.30;24.70;101469.00;;;;5071180;28;20051;-72
2022/08/28 00:23:12;;;;;;;3.80;1.70;;;25.50;47.30;24.70;101469.00;;;;5075626;28;20039;-72
2022/08/28 00:25:59;;;;;;;3.22;1.55;;;25.40;47.20;24.70;101466.00;;;;5075883;28;20036;-72
2022/08/28 00:28:45;;;;;;;2.90;1.70;;;25.50;47.30;24.70;101466.00;;;;5080289;28;20068;-72
2022/08/28 00:31:32;;;;;;;2.63;1.55;;;25.40;47.30;24.60;101466.00;;;;5085069;28;20055;-72
2022/08/28 00:34:18;;;;;;;3.70;1.70;;;25.40;47.30;24.70;101460.00;;;;5073485;28;20101;-72
2022/08/28 00:37:04;;;;;;;3.83;1.80;;;25.40;47.30;24.60;101466.00;;;;5092420;28;20047;-72
2022/08/28 00:39:50;;;;;;;4.07;1.80;;;25.40;47.30;24.60;101468.00;;;;5082695;28;20375;-73
2022/08/28 00:42:37;;;;;;;5.22;2.08;;;25.40;47.30;24.60;101476.00;;;;5087594;28;20040;-72
2022/08/28 00:45:23;;;;;;;4.05;2.20;;;25.40;47.30;24.60;101472.00;;;;5087275;28;20054;-72
2022/08/28 00:48:09;;;;;;;3.90;2.35;;;25.40;47.30;24.60;101471.00;;;;5077426;28;20462;-67
2022/08/28 00:54:00;;;;;;;4.22;1.73;;;25.40;47.40;24.60;101479.00;;;;5080562;28;20758;-67
2022/08/28 00:56:46;;;;;;;3.60;2.13;;;25.40;47.30;24.60;101476.00;;;;5065196;28;20167;-67
2022/08/28 00:59:32;;;;;;;6.13;2.15;;;25.40;47.30;24.60;101479.00;;;;5059865;28;20032;-67
2022/08/28 01:02:18;;;;;;;5.45;2.00;;;25.30;47.20;24.60;101476.00;;;;5080247;28;20101;-67
2022/08/28 01:05:08;;;;;;;3.65;2.22;;;25.40;47.30;24.60;101472.00;;;;5069843;28;20102;-67
2022/08/28 01:07:56;;;;;;;3.97;2.10;;;25.40;47.30;24.60;101477.00;;;;5093136;28;20477;-67
2022/08/28 01:10:43;;;;;;;3.33;2.05;;;25.30;47.20;24.60;101477.00;;;;5063479;28;20052;-67
2022/08/28 01:13:29;;;;;;;3.78;2.08;;;25.30;47.30;24.60;101476.00;;;;5068059;28;20497;-67
2022/08/28 01:16:16;;;;;;;3.05;1.70;;;25.30;47.30;24.60;101481.00;;;;5073369;28;20043;-67
2022/08/28 01:19:05;;;;;;;3.85;2.13;;;25.30;47.30;24.60;101484.00;;;;5060192;28;20051;-67
2022/08/28 01:22:22;;;;;;;4.00;1.90;;;25.30;47.30;24.60;101479.00;;;;5066742;28;20729;-67
2022/08/28 01:25:13;;;;;;;3.78;1.92;;;25.30;47.30;24.60;101490.00;;;;5065645;28;20464;-67
2022/08/28 01:28:03;;;;;;;4.65;2.05;;;25.30;47.40;24.50;101478.00;;;;5068917;28;20079;-67
2022/08/28 01:30:49;;;;;;;3.35;2.08;;;25.30;47.40;24.50;101490.00;;;;5070310;28;20626;-67
2022/08/28 01:33:35;;;;;;;4.32;2.53;;;25.30;47.40;24.50;101487.00;;;;5083654;28;20040;-67
2022/08/28 01:36:21;;;;;;;3.78;1.83;;;25.30;47.40;24.50;101493.00;;;;5092026;28;20043;-67
2022/08/28 01:39:12;;;;;;;3.72;2.08;;;25.30;47.40;24.50;101491.00;;;;5086994;28;20028;-67
2022/08/28 01:41:59;;;;;;;4.90;2.10;;;25.20;47.30;24.50;101487.00;;;;5056195;28;20093;-67
2022/08/28 01:44:46;;;;;;;3.90;2.08;;;25.20;47.30;24.50;101495.00;;;;5082242;28;20040;-67
2022/08/28 01:47:32;;;;;;;3.37;2.17;;;25.20;47.40;24.50;101494.00;;;;5073360;28;20118;-67
2022/08/28 01:50:19;;;;;;;4.63;1.77;;;25.20;47.40;24.50;101489.00;;;;5080202;28;20407;-67
2022/08/28 01:53:05;;;;;;;5.70;1.87;;;25.30;47.50;24.50;101490.00;;;;5079441;28;20403;-67
2022/08/28 01:55:52;;;;;;;3.63;2.00;;;25.20;47.40;24.50;101491.00;;;;5073612;28;20284;-67
2022/08/28 01:58:38;;;;;;;4.65;2.22;;;25.20;47.40;24.50;101491.00;;;;5053086;28;20122;-67
2022/08/28 02:01:24;;;;;;;4.07;2.35;;;25.20;47.40;24.50;101494.00;;;;5076596;28;20042;-67
2022/08/28 02:04:10;;;;;;;3.33;2.05;;;25.20;47.40;24.50;101498.00;;;;5082180;28;20032;-67
2022/08/28 02:06:56;;;;;;;6.10;2.10;;;25.20;47.40;24.50;101501.00;;;;5086794;28;20043;-67
2022/08/28 02:09:42;;;;;;;5.30;2.40;;;25.20;47.40;24.40;101500.00;;;;5082634;28;20036;-67
2022/08/28 02:12:29;;;;;;;3.90;2.20;;;25.20;47.40;24.50;101504.00;;;;5088400;28;20436;-67
2022/08/28 02:15:15;;;;;;;5.80;2.30;;;25.20;47.40;24.40;101504.00;;;;5076915;28;20043;-67
2022/08/28 02:18:02;;;;;;;4.00;2.25;;;25.20;47.40;24.40;101510.00;;;;5073462;28;21021;-67
2022/08/28 02:20:48;;;;;;;4.57;2.13;;;25.20;47.40;24.40;101505.00;;;;5071576;28;20047;-67
2022/08/28 02:23:35;;;;;;;3.85;2.05;;;25.20;47.40;24.40;101514.00;;;;5083166;28;20482;-67
2022/08/28 02:26:22;;;;;;;5.07;2.17;;;25.20;47.40;24.40;101515.00;;;;5085218;28;20040;-67
2022/08/28 02:29:08;;;;;;;3.78;2.20;;;25.20;47.50;24.40;101509.00;;;;5086435;28;20511;-67
2022/08/28 02:31:54;;;;;;;4.90;2.13;;;25.10;47.40;24.40;101515.00;;;;5085573;28;20470;-67
2022/08/28 02:34:42;;;;;;;5.30;2.10;;;25.20;47.50;24.40;101512.00;;;;5080465;28;20035;-67
2022/08/28 02:37:28;;;;;;;6.47;2.45;;;25.20;47.50;24.40;101506.00;;;;5079364;28;20085;-67
2022/08/28 02:40:16;;;;;;;3.75;2.17;;;25.10;47.40;24.40;101507.00;;;;5081137;28;20038;-67
2022/08/28 02:43:03;;;;;;;;;;;25.10;47.40;24.30;101505.00;;;;5057053;28;20040;-67
2022/08/28 02:45:49;;;;;;;4.05;2.08;;;25.10;47.50;24.30;101498.00;;;;5080667;28;19916;-67
2022/08/28 02:48:37;;;;;;;5.18;2.33;;;25.20;47.50;24.30;101495.00;;;;5081810;28;20039;-67
2022/08/28 02:51:23;;;;;;;;;;;25.10;47.40;24.30;101500.00;;;;5058626;28;20051;-67
2022/08/28 02:54:09;;;;;;;4.28;2.28;;;25.10;47.50;24.30;101497.00;;;;5082317;28;19986;-67
2022/08/28 02:56:55;;;;;;;4.50;1.85;;;25.10;47.40;24.30;101495.00;;;;5075616;28;20054;-67
2022/08/28 02:59:42;;;;;;;4.03;2.00;;;25.10;47.40;24.30;101503.00;;;;5064882;28;20052;-67
2022/08/28 03:02:28;;;;;;;;;;;25.10;47.40;24.20;101502.00;;;;5089623;28;20043;-67
2022/08/28 03:05:17;;;;;;;3.08;1.80;;;25.10;47.50;24.20;101507.00;;;;5076979;28;19912;-67
2022/08/28 03:08:03;;;;;;;3.13;2.17;;;25.00;47.30;24.20;101501.00;;;;5072443;28;20043;-67
2022/08/28 03:10:49;;;;;;;4.35;2.50;;;25.00;47.30;24.20;101496.00;;;;5080139;28;20044;-67
2022/08/28 03:13:35;;;;;;;3.97;2.13;;;25.00;47.30;24.20;101497.00;;;;5070302;28;20028;-67
2022/08/28 03:16:23;;;;;;;3.95;1.95;;;25.00;47.40;24.20;101507.00;;;;5085067;28;20040;-67
2022/08/28 03:19:09;;;;;;;4.38;2.35;;;25.00;47.40;24.20;101513.00;;;;5072060;28;20047;-67
2022/08/28 03:21:55;;;;;;;5.15;2.50;;;25.00;47.40;24.20;101511.00;;;;5081471;28;20461;-67
2022/08/28 03:24:43;;;;;;;3.65;2.08;;;24.90;47.40;24.20;101509.00;;;;5078052;28;20045;-67
2022/08/28 03:27:29;;;;;;;4.82;2.10;;;25.00;47.40;24.20;101505.00;;;;5089114;28;20081;-67
2022/08/28 03:30:16;;;;;;;5.10;2.15;;;25.00;47.40;24.20;101501.00;;;;5087043;28;20040;-67
2022/08/28 03:33:02;;;;;;;2.80;2.00;;;24.90;47.40;24.20;101513.00;;;;5084548;28;20044;-67
2022/08/28 03:35:48;;;;;;;3.10;2.13;;;24.90;48.00;24.20;101511.00;;;;5079834;28;20094;-67
2022/08/28 03:38:34;;;;;;;4.45;2.17;;;24.90;47.40;24.20;101514.00;;;;5076467;28;20039;-67
2022/08/28 03:41:22;;;;;;;2.70;2.10;;;24.90;47.40;24.20;101509.00;;;;5089323;28;20040;-67
2022/08/28 03:44:08;;;;;;;4.72;2.30;;;24.90;47.30;24.10;101519.00;;;;5084848;28;20051;-67
2022/08/28 03:46:54;;;;;;;4.07;2.28;;;24.90;47.30;24.10;101518.00;;;;5089588;28;20131;-67
2022/08/28 03:49:40;;;;;;;3.40;1.92;;;24.90;47.20;24.10;101522.00;;;;5084803;28;20037;-67
2022/08/28 03:52:26;;;;;;;4.05;2.05;;;24.90;47.20;24.10;101522.00;;;;5080768;28;20043;-67
2022/08/28 03:55:12;;;;;;;3.83;1.98;;;24.90;47.20;24.10;101527.00;;;;5086472;28;20051;-67
2022/08/28 03:57:58;;;;;;;4.38;2.20;;;24.80;47.20;24.10;101531.00;;;;5073671;28;20043;-67
2022/08/28 04:00:44;;;;;;;4.50;2.58;;;24.80;47.20;24.10;101531.00;;;;5083997;28;20040;-67
2022/08/28 04:03:31;;;;;;;3.10;2.20;;;24.90;47.30;24.10;101528.00;;;;5067062;28;20055;-67
2022/08/28 04:06:18;;;;;;;4.30;2.30;;;24.80;47.20;24.10;101533.00;;;;5086408;28;20446;-67
2022/08/28 04:09:04;;;;;;;3.85;2.20;;;24.80;47.20;24.10;101536.00;;;;5074340;28;20040;-67
2022/08/28 04:11:52;;;;;;;4.70;1.92;;;24.80;47.30;24.10;101533.00;;;;5092386;28;20497;-67
2022/08/28 04:14:38;;;;;;;3.80;2.38;;;24.80;47.20;24.10;101543.00;;;;5074004;28;20398;-67
2022/08/28 04:17:25;;;;;;;4.68;2.00;;;24.80;47.20;24.10;101540.00;;;;5089927;28;20104;-67
2022/08/28 04:20:11;;;;;;;3.60;1.85;;;24.80;47.30;24.10;101541.00;;;;5087029;28;20059;-67
2022/08/28 04:22:57;;;;;;;4.60;2.13;;;24.80;47.20;24.10;101543.00;;;;5095445;28;20397;-67
2022/08/28 04:25:43;;;;;;;4.50;2.00;;;24.80;47.20;24.10;101545.00;;;;5087074;28;20473;-67
2022/08/28 04:28:31;;;;;;;5.78;2.00;;;24.80;47.20;24.10;101546.00;;;;5072336;28;20037;-67
2022/08/28 04:31:17;;;;;;;;;;;24.80;47.20;24.00;101543.00;;;;5081407;28;20574;-67
2022/08/28 04:34:04;;;;;;;3.67;1.63;;;24.80;47.30;24.00;101542.00;;;;5084080;28;19912;-67
2022/08/28 04:36:51;;;;;;;2.90;1.98;;;24.80;47.10;24.00;101548.00;;;;5088720;28;20044;-67
2022/08/28 04:39:37;;;;;;;5.18;1.83;;;24.80;47.00;24.00;101550.00;;;;5085246;28;20062;-67
2022/08/28 04:42:23;;;;;;;5.97;1.92;;;24.80;47.00;24.00;101556.00;;;;5083296;28;20040;-67
2022/08/28 04:45:09;;;;;;;3.03;2.30;;;24.80;47.00;24.00;101559.00;;;;5072084;28;20047;-67
2022/08/28 04:47:55;;;;;;;3.47;1.92;;;24.80;47.10;24.00;101569.00;;;;5085277;28;20037;-67
2022/08/28 04:50:46;;;;;;;4.90;2.22;;;24.80;47.00;24.00;101563.00;;;;5084441;28;20048;-67
2022/08/28 04:53:32;;;;;;;4.38;2.40;;;24.70;46.90;24.00;101563.00;;;;5088010;28;20032;-67
2022/08/28 04:56:18;;;;;;;5.40;2.50;;;24.80;46.90;23.90;101564.00;;;;5078247;28;20080;-67
2022/08/28 04:59:05;;;;;;;3.42;2.05;;;24.70;46.90;23.90;101561.00;;;;5086788;28;20501;-67
2022/08/28 05:01:52;;;;;;;5.07;1.90;;;24.70;46.80;23.90;101561.00;;;;5091602;28;20058;-67
2022/08/28 05:04:38;;;;;;;3.08;2.13;;;24.70;46.80;23.90;101560.00;;;;5072281;28;20093;-67
2022/08/28 05:07:24;;;;;;;5.00;2.53;;;24.60;46.80;23.90;101560.00;;;;5085154;28;20040;-67
2022/08/28 05:10:10;;;;;;;3.58;2.38;;;24.60;46.70;23.90;101565.00;;;;5081980;28;20055;-67
2022/08/28 05:12:56;;;;;;;5.07;2.20;;;24.60;46.70;23.90;101572.00;;;;5088274;28;20390;-66
2022/08/28 05:15:45;;;;;;;4.25;2.38;;;24.60;46.60;23.90;101571.00;;;;5083302;28;20069;-66
2022/08/28 05:18:32;;;;;;;5.00;2.22;;;24.60;46.60;23.90;101583.00;;;;5068351;28;20477;-67
2022/08/28 05:21:21;;;;;;;6.35;2.67;;;24.60;46.60;23.90;101578.00;;;;5072238;28;20540;-66
2022/08/28 05:24:07;;;;;;;5.70;2.33;;;24.60;46.60;23.90;101585.00;;;;5072463;28;20040;-67
2022/08/28 05:26:53;;;;;;;5.35;2.60;;;24.60;46.60;23.90;101584.00;;;;5096168;28;20039;-67
2022/08/28 05:29:39;;;;;;;5.72;2.72;;;24.60;46.60;23.90;101586.00;;;;5072031;28;20044;-67
2022/08/28 05:32:25;;;;;;;3.67;2.40;;;24.60;46.60;23.80;101577.00;;;;5092367;28;20041;-67
2022/08/28 05:35:12;;;;;;;3.80;2.10;;;24.60;46.60;23.80;101575.00;;;;5082316;28;20051;-67
2022/08/28 05:37:58;;;;;;;4.15;2.47;;;24.60;46.50;23.80;101577.00;;;;5076099;28;20039;-67
2022/08/28 05:40:48;;;;;;;3.35;2.20;;;24.60;46.60;23.80;101576.00;;;;5070146;28;20402;-67
2022/08/28 05:43:34;;;;;;;3.92;2.30;;;24.60;46.60;23.80;101575.00;;;;5076970;28;20501;-67
2022/08/28 05:46:21;;;;;;;4.85;2.40;;;24.60;46.60;23.80;101577.00;;;;5079437;28;20108;-67
2022/08/28 05:49:08;;;;;;;4.10;1.88;;;24.50;46.50;23.80;101579.00;;;;5072852;28;20087;-66
2022/08/28 05:51:54;;;;;;;5.25;2.10;;;24.60;46.50;23.80;101581.00;;;;5075085;28;20040;-67
2022/08/28 05:54:40;;;;;;;3.97;2.50;;;24.60;46.50;23.80;101579.00;;;;5063405;28;20048;-67
2022/08/28 05:57:26;;;;;;;3.03;2.22;;;24.50;46.40;23.80;101580.00;;;;5086835;28;20098;-66
2022/08/28 06:00:13;;;;;;;6.25;1.95;;;24.60;46.40;23.80;101571.00;;;;5089536;28;20116;-67
2022/08/28 06:02:59;;;;;;;3.80;2.40;;;24.50;46.40;23.80;101583.00;;;;5076063;28;20039;-66
2022/08/28 06:05:45;;;;;;;3.33;2.17;;;24.50;46.30;23.80;101582.00;;;;5073206;28;20451;-67
2022/08/28 06:08:31;;;;;;;2.65;1.75;;;24.60;46.40;23.80;101579.00;;;;5085914;28;20048;-67
2022/08/28 06:11:20;;;;;;;3.70;1.98;;;24.50;46.40;23.80;101589.00;;;;5089449;28;20374;-67
2022/08/28 06:14:08;;;;;;;4.13;2.10;;;24.50;46.30;23.80;101591.00;;;;5080058;28;20102;-67
2022/08/28 06:16:55;;;;;;;3.58;2.20;;;24.60;46.50;23.80;101588.00;;;;5088553;28;20044;-67
2022/08/28 06:19:41;;;;;;;4.27;2.07;;;24.60;46.60;23.80;101599.00;;;;5082950;28;20048;-67
2022/08/28 06:22:27;;;;;;;3.83;2.10;;;24.60;46.50;23.80;101598.00;;;;5074242;28;20626;-67
2022/08/28 06:25:13;;;;;;;5.40;2.55;;;24.60;46.50;23.80;101592.00;;;;5082353;28;20066;-67
2022/08/28 06:27:59;;;;;;;6.18;2.40;;;24.60;46.40;23.80;101598.00;;;;5082929;28;20048;-67
2022/08/28 06:30:47;;;;;;;4.93;1.65;;;24.60;46.40;23.80;101602.00;;;;5079356;28;20478;-67
2022/08/28 06:33:33;;;;;;;3.90;2.17;;;24.60;46.40;23.80;101606.00;;;;5076453;28;20482;-67
2022/08/28 06:36:19;;;;;;;4.07;2.30;;;24.60;46.40;23.90;101601.00;;;;5085947;28;20262;-67
2022/08/28 06:39:06;;;;;;;3.75;2.05;;;24.60;46.40;23.90;101602.00;;;;5084747;28;20406;-67
2022/08/28 06:41:52;;;;;;;4.63;2.00;;;24.60;46.40;23.90;101614.00;;;;5071734;28;20152;-67
2022/08/28 06:44:38;;;;;;;5.32;1.73;;;24.60;46.50;23.90;101615.00;;;;5081299;28;20055;-67
2022/08/28 06:47:24;;;;;;;3.08;1.98;;;24.60;46.40;23.90;101617.00;;;;5071687;28;20379;-67
2022/08/28 06:50:10;;;;;;;4.38;2.20;;;24.60;46.40;23.90;101618.00;;;;5081565;28;20043;-66
2022/08/28 06:52:57;;;;;;;3.08;1.70;;;24.60;46.40;23.90;101616.00;;;;5086452;28;20493;-67
2022/08/28 06:55:43;;;;;;;5.15;2.70;;;24.70;46.50;23.90;101623.00;;;;5077331;28;20044;-67
2022/08/28 06:58:29;;;;;;;2.53;2.05;;;24.70;46.40;23.90;101616.00;;;;5065662;28;20041;-66
2022/08/28 07:01:21;;;;;;;3.92;1.83;;;24.60;46.40;23.90;101617.00;;;;5081347;28;20045;-66
2022/08/28 07:04:09;;;;;;;3.42;1.80;;;24.70;46.40;23.90;101615.00;;;;5069812;28;20048;-67
2022/08/28 07:06:55;;;;;;;;;;;24.70;46.40;23.90;101618.00;;;;5085969;28;20036;-66
2022/08/28 07:09:41;;;;;;;2.92;1.80;;;24.80;46.70;23.90;101620.00;;;;5064813;28;20006;-66
2022/08/28 07:12:27;;;;;;;3.25;2.25;;;24.80;46.50;23.90;101621.00;;;;5086328;28;20402;-67
2022/08/28 07:15:13;;;;;;;3.20;1.85;;;24.80;46.40;23.90;101616.00;;;;5084554;28;20027;-67
2022/08/28 07:17:59;;;;;;;2.88;1.80;;;24.80;46.50;24.00;101621.00;;;;5083771;28;20067;-66
2022/08/28 07:21:06;;;;;;;3.95;1.88;;;24.80;46.40;24.00;101623.00;;;;5080980;28;20052;-66
2022/08/28 07:23:52;;;;;;;3.00;2.03;;;24.80;46.60;24.00;101619.00;;;;5068997;28;20046;-67
2022/08/28 07:26:39;;;;;;;4.55;1.75;;;24.80;46.40;24.00;101613.00;;;;5052172;28;20041;-67
2022/08/28 07:29:26;;;;;;;4.40;1.98;;;24.80;46.40;24.00;101626.00;;;;5066186;28;20063;-66
2022/08/28 07:32:12;;;;;;;4.65;2.10;;;24.80;47.20;24.00;101626.00;;;;5092507;28;20135;-67
2022/08/28 07:34:58;;;;;;;4.53;2.00;;;24.80;46.40;24.00;101626.00;;;;5079428;28;20524;-67
2022/08/28 07:37:44;;;;;;;2.60;1.75;;;24.80;46.40;24.00;101624.00;;;;5071462;28;20072;-67
2022/08/28 07:40:30;;;;;;;3.17;1.70;;;24.90;46.40;24.00;101622.00;;;;5090924;28;20035;-67
2022/08/28 07:46:21;;;;;;;3.55;1.98;;;24.90;46.40;24.00;101625.00;;;;5079030;28;20047;-67
2022/08/28 07:49:07;;;;;;;4.28;2.08;;;24.90;46.50;24.00;101627.00;;;;5073695;28;20043;-67
2022/08/28 07:51:53;;;;;;;5.07;1.90;;;24.90;46.40;24.00;101630.00;;;;5074322;28;20102;-67
2022/08/28 07:54:39;;;;;;;3.25;1.63;;;24.90;46.40;24.10;101622.00;;;;5059919;28;20048;-67
2022/08/28 07:57:26;;;;;;;3.65;1.63;;;24.90;46.30;24.10;101635.00;;;;5084840;28;20036;-67
2022/08/28 08:00:12;;;;;;;2.55;1.70;;;24.90;46.20;24.10;101623.00;;;;5080666;28;20058;-67
2022/08/28 08:02:58;;;;;;;3.88;1.98;;;24.90;46.30;24.10;101624.00;;;;5081542;28;20036;-67
2022/08/28 08:05:56;;;;;;;4.53;1.50;;;24.90;46.30;24.10;101626.00;;;;5090529;28;20040;-67
2022/08/28 08:08:44;;;;;;;4.15;1.83;;;24.90;46.20;24.10;101636.00;;;;5071338;28;20070;-67
2022/08/28 08:11:30;;;;;;;2.75;1.55;;;24.90;46.20;24.10;101633.00;;;;5084204;28;20274;-67
2022/08/28 08:14:16;;;;;;;3.50;1.50;;;24.90;46.10;24.10;101635.00;;;;5084669;28;20492;-67
2022/08/28 08:17:02;;;;;;;4.53;1.70;;;24.90;46.10;24.10;101632.00;;;;5072302;28;20059;-67
2022/08/28 08:19:48;;;;;;;3.55;1.80;;;25.00;46.20;24.10;101629.00;;;;5081940;28;20055;-67
2022/08/28 08:22:34;;;;;;;3.53;1.77;;;25.00;46.10;24.10;101630.00;;;;5082121;28;20044;-67
2022/08/28 08:25:20;;;;;;;4.15;1.75;;;25.00;46.00;24.10;101630.00;;;;5070347;28;20466;-67
2022/08/28 08:28:07;;;;;;;3.83;1.60;;;25.00;46.00;24.10;101634.00;;;;5091131;28;20051;-67
2022/08/28 08:31:06;;;;;;;3.05;1.67;;;25.00;46.00;24.10;101631.00;;;;5078451;28;20052;-66
2022/08/28 08:33:57;;;;;;;2.10;1.15;;;25.10;46.00;24.10;101636.00;;;;5081281;28;20108;-66
2022/08/28 08:36:43;;;;;;;4.78;1.58;;;25.00;45.90;24.10;101638.00;;;;5075925;28;20117;-66
2022/08/28 08:39:30;;;;;;;2.78;1.20;;;25.00;45.80;24.10;101635.00;;;;5076905;28;20041;-66
2022/08/28 08:42:33;;;;;;;4.50;1.40;;;25.00;45.80;24.10;101638.00;;;;5076014;28;20039;-66
2022/08/28 08:45:22;;;;;;;3.38;1.63;;;25.00;45.70;24.10;101642.00;;;;5072692;28;20118;-66
2022/08/28 08:48:12;;;;;;;3.83;1.17;;;25.00;45.80;24.10;101643.00;;;;5041803;28;20049;-66
2022/08/28 08:51:04;;;;;;;4.40;1.63;;;25.00;45.80;24.10;101640.00;;;;5075063;28;20047;-66
2022/08/28 08:54:05;;;;;;;2.72;1.50;;;25.00;45.70;24.10;101643.00;;;;5057095;28;20043;-66
2022/08/28 08:56:51;;;;;;;4.75;1.17;;;25.00;45.70;24.10;101643.00;;;;5080092;28;20047;-66
2022/08/28 08:59:37;;;;;;;2.63;1.40;;;25.00;45.70;24.10;101636.00;;;;5057250;28;20051;-66
2022/08/28 09:02:27;;;;;;;2.45;1.30;;;25.00;45.70;24.10;101632.00;;;;5071507;28;20042;-66
2022/08/28 09:05:18;;;;;;;2.97;1.20;;;25.00;45.50;24.10;101640.00;;;;5069647;28;20036;-66
2022/08/28 09:08:04;;;;;;;3.85;1.33;;;25.00;45.40;24.10;101646.00;;;;5056898;28;20048;-66
2022/08/28 09:11:32;;;;;;;2.65;1.40;;;25.00;45.30;24.10;101644.00;;;;5070140;28;20094;-67
2022/08/28 09:14:33;;;;;;;3.28;1.20;;;25.00;44.90;24.10;101648.00;;;;5068293;28;20631;-67
2022/08/28 09:17:21;;;;;;;2.25;1.02;;;25.00;44.90;24.10;101654.00;;;;5067000;28;20036;-65
2022/08/28 09:20:10;;;;;;;3.58;1.38;;;25.10;44.90;24.10;101650.00;;;;5074070;28;20047;-65
2022/08/28 09:22:56;;;;;;;1.67;0.90;;;25.00;44.70;24.10;101652.00;;;;5062772;28;20048;-65
2022/08/28 09:26:04;;;;;;;2.83;1.50;;;25.00;44.70;24.10;101653.00;;;;5070702;28;20470;-65
2022/08/28 09:29:03;;;;;;;3.72;1.38;;;25.00;44.60;24.10;101655.00;;;;5053149;28;20059;-63
2022/08/28 09:31:49;;;;;;;2.17;0.85;;;25.00;44.30;24.10;101649.00;;;;5086285;28;20076;-63
2022/08/28 09:34:37;;;;;;;2.67;1.08;;;25.10;44.50;24.20;101652.00;;;;5081691;28;20040;-63
2022/08/28 09:37:28;;;;;;;3.72;1.00;;;25.00;44.40;24.10;101645.00;;;;5079991;28;20384;-64
2022/08/28 09:40:21;;;;;;;2.72;1.10;;;25.00;44.20;24.20;101649.00;;;;5079636;28;20063;-63
2022/08/28 09:43:27;;;;;;;4.40;1.30;;;25.00;44.00;24.10;101648.00;;;;5089741;28;20315;-64
2022/08/28 09:46:28;;;;;;;4.38;1.00;;;25.10;43.90;24.10;101652.00;;;;5079362;28;20048;-64
2022/08/28 09:49:14;;;;;;;3.00;1.30;;;25.00;44.60;24.10;101659.00;;;;5058815;28;20477;-64
2022/08/28 09:52:00;;;;;;;2.88;0.85;;;25.10;43.90;24.10;101652.00;;;;5071006;28;20036;-64
2022/08/28 09:54:46;;;;;;;2.25;0.98;;;25.00;43.70;24.20;101663.00;;;;5043949;28;20115;-64
2022/08/28 09:57:32;;;;;;;2.00;0.98;;;25.10;43.80;24.20;101655.00;;;;5059048;28;20036;-64
2022/08/28 10:00:18;;;;;;;3.58;1.20;;;25.00;43.70;24.20;101651.00;;;;5083495;28;20084;-64
2022/08/28 10:03:24;;;;;;;2.72;1.25;;;25.10;43.70;24.20;101654.00;;;;5084039;28;20046;-64
2022/08/28 10:06:17;;;;;;;3.25;1.13;;;25.10;43.50;24.20;101649.00;;;;5079275;28;20499;-64
2022/08/28 10:09:20;;;;;;;1.80;0.88;;;25.10;43.50;24.20;101648.00;;;;5056882;28;20048;-65
2022/08/28 10:12:24;;;;;;;2.83;1.20;;;25.10;43.40;24.20;101644.00;;;;5073248;28;20080;-64
2022/08/28 10:15:36;;;;;;;3.20;1.10;;;25.10;43.50;24.20;101640.00;;;;5073000;28;20048;-64
2022/08/28 10:18:51;;;;;;;3.72;1.30;;;25.10;43.50;24.20;101650.00;;;;5070861;28;20046;-67
2022/08/28 10:21:43;;;;;;;2.47;1.02;;;25.10;43.40;24.20;101649.00;;;;5067359;28;20541;-68
2022/08/28 10:24:57;;;;;;;3.10;1.00;;;25.10;43.50;24.20;101638.00;;;;5063226;28;20542;-69
2022/08/28 10:27:55;;;;;;;1.85;1.00;;;25.10;43.40;24.20;101647.00;;;;5069505;28;20059;-67
2022/08/28 10:31:08;;;;;;;1.70;0.80;;;25.10;43.20;24.20;101656.00;;;;5084250;28;20433;-67
2022/08/28 10:34:15;;;;;;;2.72;0.95;;;25.20;43.40;24.20;101638.00;;;;5054760;28;20044;-67
2022/08/28 10:37:23;;;;;;;1.65;0.88;;;25.20;43.10;24.20;101650.00;;;;5060920;28;20050;-67
2022/08/28 10:40:16;;;;;;;2.85;1.00;;;25.20;44.10;24.20;101644.00;;;;5069687;28;20047;-67
2022/08/28 10:43:10;;;;;;;2.83;1.20;;;25.20;43.30;24.20;101649.00;;;;5069718;28;20413;-67
2022/08/28 10:46:08;;;;;;;3.53;0.95;;;25.20;43.20;24.20;101640.00;;;;5076006;28;20047;-67
2022/08/28 10:48:58;;;;;;;2.13;1.10;;;25.20;43.10;24.30;101646.00;;;;5060295;28;20546;-66
2022/08/28 10:52:23;;;;;;;1.05;0.90;;;25.20;42.90;24.30;101648.00;;;;5054837;28;20044;-66
2022/08/28 10:55:31;;;;;;;2.58;1.33;;;25.20;42.90;24.30;101645.00;;;;5075239;28;20121;-66
2022/08/28 10:58:37;;;;;;;2.17;1.00;;;25.20;42.80;24.30;101649.00;;;;5065696;28;20493;-66
2022/08/28 11:01:35;;;;;;;4.90;1.10;;;25.20;42.70;24.30;101642.00;;;;5078833;28;20636;-66
2022/08/28 11:04:22;;;;;;;3.03;0.80;;;25.20;42.60;24.30;101645.00;;;;5063491;28;20075;-67
2022/08/28 11:07:10;;;;;;;3.47;1.10;;;25.20;42.80;24.30;101639.00;;;;5073225;28;20050;-67
2022/08/28 11:10:14;;;;;;;1.10;0.60;;;25.20;42.80;24.30;101644.00;;;;5066508;28;20043;-67
2022/08/28 11:13:01;;;;;;;2.70;0.75;;;25.20;42.80;24.30;101634.00;;;;5067649;28;20068;-71
2022/08/28 11:15:51;;;;;;;4.30;1.20;;;25.20;42.80;24.30;101638.00;;;;5063697;28;20042;-67
2022/08/28 11:19:00;;;;;;;2.20;1.08;;;25.30;42.70;24.30;101635.00;;;;5058910;28;20763;-67
2022/08/28 11:22:01;;;;;;;2.22;1.00;;;25.30;42.70;24.30;101640.00;;;;5069975;28;20066;-67
2022/08/28 11:25:44;;;;;;;3.97;1.00;;;25.30;42.70;24.30;101646.00;;;;5061217;28;20125;-67
2022/08/28 11:28:33;;;;;;;1.48;0.80;;;25.30;42.60;24.30;101651.00;;;;5061411;28;20070;-67
2022/08/28 11:31:30;;;;;;;3.25;1.00;;;25.30;42.50;24.30;101637.00;;;;5085392;28;20051;-73
2022/08/28 11:34:55;;;;;;;2.17;1.03;;;25.30;42.60;24.30;101649.00;;;;5072392;28;20039;-67
2022/08/28 11:37:42;;;;;;;2.53;1.00;;;25.30;42.50;24.30;101640.00;;;;5083179;28;20359;-67
2022/08/28 11:40:31;;;;;;;3.33;1.20;;;25.40;42.70;24.30;101635.00;;;;5084330;28;20496;-67
2022/08/28 11:43:19;;;;;;;3.20;1.10;;;25.30;42.50;24.30;101637.00;;;;5083993;28;20059;-67
2022/08/28 11:46:26;;;;;;;3.40;0.90;;;25.20;42.40;24.30;101625.00;;;;5087858;28;20068;-67
2022/08/28 11:49:25;;;;;;;3.28;0.95;;;25.30;42.50;24.30;101629.00;;;;5088538;28;20035;-67
2022/08/28 11:52:39;;;;;;;2.95;1.00;;;25.30;42.40;24.30;101630.00;;;;5081874;28;20051;-67
2022/08/28 11:56:04;;;;;;;1.92;1.10;;;25.40;42.50;24.30;101643.00;;;;5076026;28;20039;-67
2022/08/28 11:59:37;;;;;;;3.08;1.33;;;25.40;42.40;24.30;101643.00;;;;5071962;28;20140;-67
2022/08/28 12:02:38;;;;;;;1.65;1.02;;;25.30;42.30;24.30;101650.00;;;;5054592;28;20508;-67
2022/08/28 12:05:30;;;;;;;1.83;0.90;;;25.40;42.40;24.30;101650.00;;;;5096363;28;20035;-67
2022/08/28 12:08:47;;;;;;;5.57;1.10;;;25.50;42.40;24.40;101648.00;;;;5077392;28;20036;-67
2022/08/28 12:11:39;;;;;;;3.40;0.90;;;25.30;42.40;24.40;101643.00;;;;5087141;28;20059;-67
2022/08/28 12:14:25;;;;;;;2.25;1.02;;;25.40;42.40;24.40;101639.00;;;;5074511;28;20033;-66
2022/08/28 12:17:21;;;;;;;2.28;1.08;;;25.40;42.40;24.40;101642.00;;;;5080878;28;20317;-67
2022/08/28 12:20:15;;;;;;;2.78;1.10;;;25.30;42.10;24.40;101654.00;;;;5084926;28;20040;-67
2022/08/28 12:23:22;;;;;;;3.05;1.00;;;25.40;42.10;24.40;101639.00;;;;5063701;28;20117;-67
2022/08/28 12:26:28;;;;;;;2.63;1.00;;;25.50;42.20;24.40;101641.00;;;;5063704;28;20462;-67
2022/08/28 12:29:37;;;;;;;1.83;1.13;;;25.40;42.00;24.40;101641.00;;;;5071163;28;20046;-67
2022/08/28 12:33:02;;;;;;;3.55;1.15;;;25.40;42.10;24.40;101632.00;;;;5068717;28;20432;-67
2022/08/28 12:35:48;;;;;;;2.05;1.00;;;25.40;41.90;24.40;101634.00;;;;5071305;28;20032;-67